sensor_id;sensor_type;location;lat;lon;timestamp;P1;durP1;ratioP1;P2;durP2;ratioP2
74741;SDS011;63265;48.288;16.314;2022-09-27T00:01:03;3.55;;;2.42;;
74741;SDS011;63265;48.288;16.314;2022-09-27T00:03:31;4.32;;;2.30;;
74741;SDS011;63265;48.288;16.314;2022-09-27T00:06:03;3.47;;;2.40;;
74741;SDS011;63265;48.288;16.314;2022-09-27T00:08:32;4.82;;;2.50;;
74741;SDS011;63265;48.288;16.314;2022-09-27T00:11:03;4.32;;;2.50;;
74741;SDS011;63265;48.288;16.314;2022-09-27T00:13:31;3.17;;;2.50;;
74741;SDS011;63265;48.288;16.314;2022-09-27T00:15:58;2.92;;;2.47;;
74741;SDS011;63265;48.288;16.314;2022-09-27T00:18:25;4.57;;;2.35;;
74741;SDS011;63265;48.288;16.314;2022-09-27T00:20:51;2.92;;;1.98;;
74741;SDS011;63265;48.288;16.314;2022-09-27T00:23:17;2.38;;;2.00;;
74741;SDS011;63265;48.288;16.314;2022-09-27T00:25:53;2.80;;;2.30;;
74741;SDS011;63265;48.288;16.314;2022-09-27T00:28:20;2.92;;;2.10;;
74741;SDS011;63265;48.288;16.314;2022-09-27T00:30:45;3.85;;;2.40;;
74741;SDS011;63265;48.288;16.314;2022-09-27T00:33:11;2.90;;;1.83;;
74741;SDS011;63265;48.288;16.314;2022-09-27T00:35:37;3.72;;;2.45;;
74741;SDS011;63265;48.288;16.314;2022-09-27T00:38:02;3.70;;;2.40;;
74741;SDS011;63265;48.288;16.314;2022-09-27T00:40:28;2.90;;;2.10;;
74741;SDS011;63265;48.288;16.314;2022-09-27T00:42:53;3.10;;;2.20;;
74741;SDS011;63265;48.288;16.314;2022-09-27T00:45:19;3.42;;;2.30;;
74741;SDS011;63265;48.288;16.314;2022-09-27T00:47:49;3.08;;;2.30;;
74741;SDS011;63265;48.288;16.314;2022-09-27T00:50:35;1.90;;;1.80;;
74741;SDS011;63265;48.288;16.314;2022-09-27T00:55:59;3.72;;;2.05;;
74741;SDS011;63265;48.288;16.314;2022-09-27T00:58:31;2.70;;;2.17;;
74741;SDS011;63265;48.288;16.314;2022-09-27T01:01:07;2.78;;;1.90;;
74741;SDS011;63265;48.288;16.314;2022-09-27T01:06:13;2.55;;;2.17;;
74741;SDS011;63265;48.288;16.314;2022-09-27T01:08:40;2.75;;;2.20;;
74741;SDS011;63265;48.288;16.314;2022-09-27T01:11:13;2.25;;;2.03;;
74741;SDS011;63265;48.288;16.314;2022-09-27T01:13:42;3.15;;;2.20;;
74741;SDS011;63265;48.288;16.314;2022-09-27T01:24:29;4.35;;;2.15;;
74741;SDS011;63265;48.288;16.314;2022-09-27T01:27:11;2.42;;;2.10;;
74741;SDS011;63265;48.288;16.314;2022-09-27T01:32:57;2.85;;;2.08;;
74741;SDS011;63265;48.288;16.314;2022-09-27T01:43:49;2.20;;;2.00;;
74741;SDS011;63265;48.288;16.314;2022-09-27T01:46:35;2.60;;;2.20;;
74741;SDS011;63265;48.288;16.314;2022-09-27T01:49:07;2.42;;;2.10;;
74741;SDS011;63265;48.288;16.314;2022-09-27T01:51:38;2.33;;;2.13;;
74741;SDS011;63265;48.288;16.314;2022-09-27T01:54:10;2.90;;;2.10;;
74741;SDS011;63265;48.288;16.314;2022-09-27T01:56:49;3.22;;;2.25;;
74741;SDS011;63265;48.288;16.314;2022-09-27T01:59:22;2.42;;;2.22;;
74741;SDS011;63265;48.288;16.314;2022-09-27T02:01:53;2.10;;;1.90;;
74741;SDS011;63265;48.288;16.314;2022-09-27T02:04:24;2.85;;;2.22;;
74741;SDS011;63265;48.288;16.314;2022-09-27T02:06:55;3.72;;;1.98;;
74741;SDS011;63265;48.288;16.314;2022-09-27T02:09:30;3.90;;;2.03;;
74741;SDS011;63265;48.288;16.314;2022-09-27T02:12:04;1.98;;;1.80;;
74741;SDS011;63265;48.288;16.314;2022-09-27T02:14:37;2.13;;;1.92;;
74741;SDS011;63265;48.288;16.314;2022-09-27T02:17:33;2.20;;;1.90;;
74741;SDS011;63265;48.288;16.314;2022-09-27T02:20:16;2.58;;;2.00;;
74741;SDS011;63265;48.288;16.314;2022-09-27T02:22:50;2.30;;;2.10;;
74741;SDS011;63265;48.288;16.314;2022-09-27T02:28:37;4.00;;;2.15;;
74741;SDS011;63265;48.288;16.314;2022-09-27T02:31:04;3.20;;;2.03;;
74741;SDS011;63265;48.288;16.314;2022-09-27T02:33:31;2.28;;;2.08;;
74741;SDS011;63265;48.288;16.314;2022-09-27T02:36:06;2.40;;;2.03;;
74741;SDS011;63265;48.288;16.314;2022-09-27T02:38:33;2.22;;;2.03;;
74741;SDS011;63265;48.288;16.314;2022-09-27T02:40:59;2.65;;;2.08;;
74741;SDS011;63265;48.288;16.314;2022-09-27T02:43:26;4.43;;;1.98;;
74741;SDS011;63265;48.288;16.314;2022-09-27T03:05:08;2.75;;;2.10;;
74741;SDS011;63265;48.288;16.314;2022-09-27T03:07:39;2.58;;;1.92;;
74741;SDS011;63265;48.288;16.314;2022-09-27T03:10:06;2.72;;;2.08;;
74741;SDS011;63265;48.288;16.314;2022-09-27T03:12:39;3.47;;;1.80;;
74741;SDS011;63265;48.288;16.314;2022-09-27T03:15:04;2.50;;;2.08;;
74741;SDS011;63265;48.288;16.314;2022-09-27T03:17:30;2.28;;;2.00;;
74741;SDS011;63265;48.288;16.314;2022-09-27T03:19:56;3.00;;;2.00;;
74741;SDS011;63265;48.288;16.314;2022-09-27T03:22:21;3.28;;;2.10;;
74741;SDS011;63265;48.288;16.314;2022-09-27T03:24:47;2.05;;;1.85;;
74741;SDS011;63265;48.288;16.314;2022-09-27T03:27:13;3.38;;;1.92;;
74741;SDS011;63265;48.288;16.314;2022-09-27T03:29:39;2.10;;;1.90;;
74741;SDS011;63265;48.288;16.314;2022-09-27T03:32:04;2.33;;;1.92;;
74741;SDS011;63265;48.288;16.314;2022-09-27T03:34:30;2.95;;;2.10;;
74741;SDS011;63265;48.288;16.314;2022-09-27T03:36:56;2.10;;;1.90;;
74741;SDS011;63265;48.288;16.314;2022-09-27T03:39:21;2.90;;;1.90;;
74741;SDS011;63265;48.288;16.314;2022-09-27T03:41:47;2.58;;;1.80;;
74741;SDS011;63265;48.288;16.314;2022-09-27T03:44:13;2.10;;;1.90;;
74741;SDS011;63265;48.288;16.314;2022-09-27T03:46:38;2.50;;;2.00;;
74741;SDS011;63265;48.288;16.314;2022-09-27T03:49:04;2.03;;;1.60;;
74741;SDS011;63265;48.288;16.314;2022-09-27T03:51:29;2.38;;;2.05;;
74741;SDS011;63265;48.288;16.314;2022-09-27T03:53:55;3.40;;;2.13;;
74741;SDS011;63265;48.288;16.314;2022-09-27T03:56:21;2.33;;;1.98;;
74741;SDS011;63265;48.288;16.314;2022-09-27T03:58:47;1.70;;;1.60;;
74741;SDS011;63265;48.288;16.314;2022-09-27T04:01:12;2.80;;;2.25;;
74741;SDS011;63265;48.288;16.314;2022-09-27T04:03:38;2.72;;;1.90;;
74741;SDS011;63265;48.288;16.314;2022-09-27T04:06:04;2.03;;;1.83;;
74741;SDS011;63265;48.288;16.314;2022-09-27T04:08:30;3.47;;;1.88;;
74741;SDS011;63265;48.288;16.314;2022-09-27T04:10:55;2.00;;;1.80;;
74741;SDS011;63265;48.288;16.314;2022-09-27T04:13:21;2.25;;;1.80;;
74741;SDS011;63265;48.288;16.314;2022-09-27T04:15:47;2.55;;;2.03;;
74741;SDS011;63265;48.288;16.314;2022-09-27T04:18:13;2.38;;;1.90;;
74741;SDS011;63265;48.288;16.314;2022-09-27T04:20:39;1.98;;;1.77;;
74741;SDS011;63265;48.288;16.314;2022-09-27T04:23:04;2.25;;;2.05;;
74741;SDS011;63265;48.288;16.314;2022-09-27T04:25:30;2.08;;;1.90;;
74741;SDS011;63265;48.288;16.314;2022-09-27T04:27:59;2.20;;;2.00;;
74741;SDS011;63265;48.288;16.314;2022-09-27T04:30:27;1.98;;;1.83;;
74741;SDS011;63265;48.288;16.314;2022-09-27T04:32:53;2.08;;;1.88;;
74741;SDS011;63265;48.288;16.314;2022-09-27T04:35:19;2.03;;;1.83;;
74741;SDS011;63265;48.288;16.314;2022-09-27T04:38:03;2.42;;;2.20;;
74741;SDS011;63265;48.288;16.314;2022-09-27T04:40:28;2.25;;;1.70;;
74741;SDS011;63265;48.288;16.314;2022-09-27T04:42:57;2.30;;;1.80;;
74741;SDS011;63265;48.288;16.314;2022-09-27T04:45:23;2.10;;;1.77;;
74741;SDS011;63265;48.288;16.314;2022-09-27T04:47:49;2.47;;;1.92;;
74741;SDS011;63265;48.288;16.314;2022-09-27T04:50:15;2.00;;;1.90;;
74741;SDS011;63265;48.288;16.314;2022-09-27T04:52:41;2.92;;;2.22;;
74741;SDS011;63265;48.288;16.314;2022-09-27T04:55:07;14.23;;;2.42;;
74741;SDS011;63265;48.288;16.314;2022-09-27T04:57:34;9.43;;;2.13;;
74741;SDS011;63265;48.288;16.314;2022-09-27T05:00:00;10.95;;;2.20;;
74741;SDS011;63265;48.288;16.314;2022-09-27T05:02:26;12.10;;;2.10;;
74741;SDS011;63265;48.288;16.314;2022-09-27T05:04:53;13.60;;;2.45;;
74741;SDS011;63265;48.288;16.314;2022-09-27T05:07:24;11.80;;;2.30;;
74741;SDS011;63265;48.288;16.314;2022-09-27T05:09:50;12.20;;;2.55;;
74741;SDS011;63265;48.288;16.314;2022-09-27T05:12:16;7.82;;;2.17;;
74741;SDS011;63265;48.288;16.314;2022-09-27T05:14:41;17.73;;;2.95;;
74741;SDS011;63265;48.288;16.314;2022-09-27T05:17:07;14.25;;;2.50;;
74741;SDS011;63265;48.288;16.314;2022-09-27T05:19:33;13.48;;;2.17;;
74741;SDS011;63265;48.288;16.314;2022-09-27T05:21:59;27.40;;;3.42;;
74741;SDS011;63265;48.288;16.314;2022-09-27T05:24:25;23.05;;;2.58;;
74741;SDS011;63265;48.288;16.314;2022-09-27T05:26:52;13.20;;;2.50;;
74741;SDS011;63265;48.288;16.314;2022-09-27T05:29:18;12.00;;;2.60;;
74741;SDS011;63265;48.288;16.314;2022-09-27T05:31:44;17.45;;;2.60;;
74741;SDS011;63265;48.288;16.314;2022-09-27T05:34:11;12.30;;;2.38;;
74741;SDS011;63265;48.288;16.314;2022-09-27T05:36:37;9.48;;;2.45;;
74741;SDS011;63265;48.288;16.314;2022-09-27T05:39:03;16.95;;;2.30;;
74741;SDS011;63265;48.288;16.314;2022-09-27T05:41:29;10.30;;;2.47;;
74741;SDS011;63265;48.288;16.314;2022-09-27T05:43:56;7.35;;;2.30;;
74741;SDS011;63265;48.288;16.314;2022-09-27T05:46:23;14.00;;;2.60;;
74741;SDS011;63265;48.288;16.314;2022-09-27T05:48:48;9.27;;;2.10;;
74741;SDS011;63265;48.288;16.314;2022-09-27T05:51:14;13.38;;;2.35;;
74741;SDS011;63265;48.288;16.314;2022-09-27T05:53:39;6.40;;;2.45;;
74741;SDS011;63265;48.288;16.314;2022-09-27T05:56:05;6.97;;;2.30;;
74741;SDS011;63265;48.288;16.314;2022-09-27T05:58:31;9.85;;;2.65;;
74741;SDS011;63265;48.288;16.314;2022-09-27T06:00:58;5.25;;;2.20;;
74741;SDS011;63265;48.288;16.314;2022-09-27T06:03:25;16.63;;;2.63;;
74741;SDS011;63265;48.288;16.314;2022-09-27T06:05:51;6.90;;;2.40;;
74741;SDS011;63265;48.288;16.314;2022-09-27T06:08:17;5.75;;;1.98;;
74741;SDS011;63265;48.288;16.314;2022-09-27T06:10:44;4.15;;;1.98;;
74741;SDS011;63265;48.288;16.314;2022-09-27T06:13:12;10.85;;;2.38;;
74741;SDS011;63265;48.288;16.314;2022-09-27T06:15:40;5.97;;;2.28;;
74741;SDS011;63265;48.288;16.314;2022-09-27T06:18:08;9.52;;;2.90;;
74741;SDS011;63265;48.288;16.314;2022-09-27T06:20:36;8.35;;;3.15;;
74741;SDS011;63265;48.288;16.314;2022-09-27T06:23:07;9.55;;;3.13;;
74741;SDS011;63265;48.288;16.314;2022-09-27T06:25:33;7.70;;;3.10;;
74741;SDS011;63265;48.288;16.314;2022-09-27T06:28:00;8.93;;;2.85;;
74741;SDS011;63265;48.288;16.314;2022-09-27T06:30:26;9.50;;;2.90;;
74741;SDS011;63265;48.288;16.314;2022-09-27T06:32:56;11.50;;;2.97;;
74741;SDS011;63265;48.288;16.314;2022-09-27T06:35:23;8.52;;;2.80;;
74741;SDS011;63265;48.288;16.314;2022-09-27T06:37:49;9.93;;;2.80;;
74741;SDS011;63265;48.288;16.314;2022-09-27T06:40:16;9.40;;;2.83;;
74741;SDS011;63265;48.288;16.314;2022-09-27T06:42:42;6.68;;;2.45;;
74741;SDS011;63265;48.288;16.314;2022-09-27T06:45:08;6.88;;;2.63;;
74741;SDS011;63265;48.288;16.314;2022-09-27T06:47:37;9.63;;;2.70;;
74741;SDS011;63265;48.288;16.314;2022-09-27T06:50:03;11.13;;;3.05;;
74741;SDS011;63265;48.288;16.314;2022-09-27T06:52:31;9.15;;;2.83;;
74741;SDS011;63265;48.288;16.314;2022-09-27T06:54:57;9.27;;;2.80;;
74741;SDS011;63265;48.288;16.314;2022-09-27T06:57:23;10.63;;;3.00;;
74741;SDS011;63265;48.288;16.314;2022-09-27T07:00:08;10.13;;;3.08;;
74741;SDS011;63265;48.288;16.314;2022-09-27T07:02:54;13.45;;;2.90;;
74741;SDS011;63265;48.288;16.314;2022-09-27T07:05:25;10.02;;;2.60;;
74741;SDS011;63265;48.288;16.314;2022-09-27T07:07:57;6.53;;;2.97;;
74741;SDS011;63265;48.288;16.314;2022-09-27T07:10:24;15.40;;;2.65;;
74741;SDS011;63265;48.288;16.314;2022-09-27T07:12:51;11.75;;;2.88;;
74741;SDS011;63265;48.288;16.314;2022-09-27T07:15:18;10.75;;;2.75;;
74741;SDS011;63265;48.288;16.314;2022-09-27T07:17:47;6.22;;;2.58;;
74741;SDS011;63265;48.288;16.314;2022-09-27T07:20:26;7.47;;;2.67;;
74741;SDS011;63265;48.288;16.314;2022-09-27T07:22:53;10.73;;;2.72;;
74741;SDS011;63265;48.288;16.314;2022-09-27T07:25:19;7.35;;;2.72;;
74741;SDS011;63265;48.288;16.314;2022-09-27T07:27:45;9.82;;;3.25;;
74741;SDS011;63265;48.288;16.314;2022-09-27T07:30:11;11.40;;;2.60;;
74741;SDS011;63265;48.288;16.314;2022-09-27T07:32:37;8.23;;;2.80;;
74741;SDS011;63265;48.288;16.314;2022-09-27T07:35:04;7.20;;;2.80;;
74741;SDS011;63265;48.288;16.314;2022-09-27T07:37:31;12.27;;;3.05;;
74741;SDS011;63265;48.288;16.314;2022-09-27T07:39:58;6.65;;;3.10;;
74741;SDS011;63265;48.288;16.314;2022-09-27T07:42:25;8.05;;;2.40;;
74741;SDS011;63265;48.288;16.314;2022-09-27T07:44:52;7.15;;;2.95;;
74741;SDS011;63265;48.288;16.314;2022-09-27T07:47:21;9.02;;;2.88;;
74741;SDS011;63265;48.288;16.314;2022-09-27T07:49:51;9.88;;;3.10;;
74741;SDS011;63265;48.288;16.314;2022-09-27T07:52:19;11.07;;;3.05;;
74741;SDS011;63265;48.288;16.314;2022-09-27T07:54:46;6.97;;;2.40;;
74741;SDS011;63265;48.288;16.314;2022-09-27T07:57:12;6.22;;;3.08;;
74741;SDS011;63265;48.288;16.314;2022-09-27T07:59:38;8.25;;;2.75;;
74741;SDS011;63265;48.288;16.314;2022-09-27T08:02:05;6.13;;;2.72;;
74741;SDS011;63265;48.288;16.314;2022-09-27T08:04:31;5.57;;;2.85;;
74741;SDS011;63265;48.288;16.314;2022-09-27T08:06:57;7.50;;;2.72;;
74741;SDS011;63265;48.288;16.314;2022-09-27T08:09:22;9.55;;;3.00;;
74741;SDS011;63265;48.288;16.314;2022-09-27T08:11:50;7.57;;;2.90;;
74741;SDS011;63265;48.288;16.314;2022-09-27T08:14:16;5.93;;;2.78;;
74741;SDS011;63265;48.288;16.314;2022-09-27T08:16:42;8.02;;;2.75;;
74741;SDS011;63265;48.288;16.314;2022-09-27T08:19:08;10.88;;;3.05;;
74741;SDS011;63265;48.288;16.314;2022-09-27T08:21:35;10.27;;;3.13;;
74741;SDS011;63265;48.288;16.314;2022-09-27T08:24:00;10.05;;;2.90;;
74741;SDS011;63265;48.288;16.314;2022-09-27T08:26:27;5.82;;;2.75;;
74741;SDS011;63265;48.288;16.314;2022-09-27T08:28:53;6.60;;;2.80;;
74741;SDS011;63265;48.288;16.314;2022-09-27T08:31:19;6.80;;;3.05;;
74741;SDS011;63265;48.288;16.314;2022-09-27T08:33:51;9.15;;;3.13;;
74741;SDS011;63265;48.288;16.314;2022-09-27T08:36:17;7.35;;;2.83;;
74741;SDS011;63265;48.288;16.314;2022-09-27T08:38:46;7.43;;;2.90;;
74741;SDS011;63265;48.288;16.314;2022-09-27T08:49:34;7.90;;;3.03;;
74741;SDS011;63265;48.288;16.314;2022-09-27T08:52:21;9.25;;;2.75;;
74741;SDS011;63265;48.288;16.314;2022-09-27T08:55:02;4.72;;;2.88;;
74741;SDS011;63265;48.288;16.314;2022-09-27T08:57:30;5.97;;;3.10;;
74741;SDS011;63265;48.288;16.314;2022-09-27T09:00:03;4.53;;;2.58;;
74741;SDS011;63265;48.288;16.314;2022-09-27T09:02:35;6.57;;;2.97;;
74741;SDS011;63265;48.288;16.314;2022-09-27T09:05:02;10.82;;;3.05;;
74741;SDS011;63265;48.288;16.314;2022-09-27T09:08:01;5.57;;;2.50;;
74741;SDS011;63265;48.288;16.314;2022-09-27T09:11:33;7.03;;;2.70;;
74741;SDS011;63265;48.288;16.314;2022-09-27T09:36:48;9.38;;;2.88;;
74741;SDS011;63265;48.288;16.314;2022-09-27T09:47:10;4.43;;;3.10;;
74741;SDS011;63265;48.288;16.314;2022-09-27T09:49:42;8.60;;;2.45;;
74741;SDS011;63265;48.288;16.314;2022-09-27T09:52:18;5.35;;;2.30;;
74741;SDS011;63265;48.288;16.314;2022-09-27T09:55:00;3.55;;;2.40;;
74741;SDS011;63265;48.288;16.314;2022-09-27T09:57:37;4.38;;;2.50;;
74741;SDS011;63265;48.288;16.314;2022-09-27T10:00:15;2.83;;;2.33;;
74741;SDS011;63265;48.288;16.314;2022-09-27T10:02:43;7.53;;;2.95;;
74741;SDS011;63265;48.288;16.314;2022-09-27T10:05:15;4.35;;;2.60;;
74741;SDS011;63265;48.288;16.314;2022-09-27T10:07:43;3.42;;;2.30;;
74741;SDS011;63265;48.288;16.314;2022-09-27T10:10:13;4.10;;;2.50;;
74741;SDS011;63265;48.288;16.314;2022-09-27T10:12:40;3.45;;;2.60;;
74741;SDS011;63265;48.288;16.314;2022-09-27T10:15:11;3.97;;;2.20;;
74741;SDS011;63265;48.288;16.314;2022-09-27T10:17:47;5.18;;;2.58;;
74741;SDS011;63265;48.288;16.314;2022-09-27T10:23:31;4.32;;;2.45;;
74741;SDS011;63265;48.288;16.314;2022-09-27T10:25:57;3.40;;;2.47;;
74741;SDS011;63265;48.288;16.314;2022-09-27T10:28:29;2.42;;;2.13;;
74741;SDS011;63265;48.288;16.314;2022-09-27T10:30:58;3.05;;;2.40;;
74741;SDS011;63265;48.288;16.314;2022-09-27T10:33:26;4.20;;;2.35;;
74741;SDS011;63265;48.288;16.314;2022-09-27T10:35:55;3.97;;;2.50;;
74741;SDS011;63265;48.288;16.314;2022-09-27T10:38:39;3.78;;;2.40;;
74741;SDS011;63265;48.288;16.314;2022-09-27T10:41:23;3.88;;;2.60;;
74741;SDS011;63265;48.288;16.314;2022-09-27T10:43:55;5.55;;;2.60;;
74741;SDS011;63265;48.288;16.314;2022-09-27T10:46:25;2.72;;;2.05;;
74741;SDS011;63265;48.288;16.314;2022-09-27T10:51:50;4.85;;;2.58;;
74741;SDS011;63265;48.288;16.314;2022-09-27T10:54:22;4.25;;;2.10;;
74741;SDS011;63265;48.288;16.314;2022-09-27T10:56:55;3.45;;;2.22;;
74741;SDS011;63265;48.288;16.314;2022-09-27T11:01:50;2.75;;;2.38;;
74741;SDS011;63265;48.288;16.314;2022-09-27T11:04:25;4.28;;;2.30;;
74741;SDS011;63265;48.288;16.314;2022-09-27T11:09:46;3.35;;;2.20;;
74741;SDS011;63265;48.288;16.314;2022-09-27T11:12:18;3.42;;;2.33;;
74741;SDS011;63265;48.288;16.314;2022-09-27T11:15:05;3.60;;;2.38;;
74741;SDS011;63265;48.288;16.314;2022-09-27T11:17:42;5.32;;;2.38;;
74741;SDS011;63265;48.288;16.314;2022-09-27T11:20:17;4.75;;;2.30;;
74741;SDS011;63265;48.288;16.314;2022-09-27T11:31:04;4.85;;;2.42;;
74741;SDS011;63265;48.288;16.314;2022-09-27T11:39:21;7.78;;;2.28;;
74741;SDS011;63265;48.288;16.314;2022-09-27T11:56:00;10.50;;;2.53;;
74741;SDS011;63265;48.288;16.314;2022-09-27T11:58:52;4.15;;;2.08;;
74741;SDS011;63265;48.288;16.314;2022-09-27T12:10:11;4.50;;;2.30;;
74741;SDS011;63265;48.288;16.314;2022-09-27T12:12:41;3.35;;;2.22;;
74741;SDS011;63265;48.288;16.314;2022-09-27T12:15:14;5.38;;;2.42;;
74741;SDS011;63265;48.288;16.314;2022-09-27T12:17:45;5.28;;;2.40;;
74741;SDS011;63265;48.288;16.314;2022-09-27T12:20:24;3.25;;;2.72;;
74741;SDS011;63265;48.288;16.314;2022-09-27T12:22:57;4.90;;;2.90;;
74741;SDS011;63265;48.288;16.314;2022-09-27T12:25:35;8.80;;;3.03;;
74741;SDS011;63265;48.288;16.314;2022-09-27T12:31:06;7.55;;;3.40;;
74741;SDS011;63265;48.288;16.314;2022-09-27T12:36:32;6.10;;;3.08;;
74741;SDS011;63265;48.288;16.314;2022-09-27T12:41:50;6.55;;;3.20;;
74741;SDS011;63265;48.288;16.314;2022-09-27T12:44:26;7.47;;;3.35;;
74741;SDS011;63265;48.288;16.314;2022-09-27T12:47:09;9.07;;;3.58;;
74741;SDS011;63265;48.288;16.314;2022-09-27T12:52:36;4.65;;;2.70;;
74741;SDS011;63265;48.288;16.314;2022-09-27T13:03:52;4.82;;;2.90;;
74741;SDS011;63265;48.288;16.314;2022-09-27T13:12:01;4.45;;;2.60;;
74741;SDS011;63265;48.288;16.314;2022-09-27T13:14:30;4.88;;;2.58;;
74741;SDS011;63265;48.288;16.314;2022-09-27T13:16:58;4.35;;;2.30;;
74741;SDS011;63265;48.288;16.314;2022-09-27T13:19:43;5.53;;;2.53;;
74741;SDS011;63265;48.288;16.314;2022-09-27T13:25:01;4.53;;;2.50;;
74741;SDS011;63265;48.288;16.314;2022-09-27T13:32:34;4.38;;;2.30;;
74741;SDS011;63265;48.288;16.314;2022-09-27T13:37:45;3.13;;;1.88;;
74741;SDS011;63265;48.288;16.314;2022-09-27T13:40:32;4.90;;;2.38;;
74741;SDS011;63265;48.288;16.314;2022-09-27T13:45:38;3.85;;;2.17;;
74741;SDS011;63265;48.288;16.314;2022-09-27T13:52:05;9.27;;;2.40;;
74741;SDS011;63265;48.288;16.314;2022-09-27T13:54:04;5.18;;;2.40;;
74741;SDS011;63265;48.288;16.314;2022-09-27T13:56:51;3.47;;;2.03;;
74741;SDS011;63265;48.288;16.314;2022-09-27T14:02:30;3.33;;;1.83;;
74741;SDS011;63265;48.288;16.314;2022-09-27T14:04:51;4.25;;;1.77;;
74741;SDS011;63265;48.288;16.314;2022-09-27T14:07:18;3.60;;;2.00;;
74741;SDS011;63265;48.288;16.314;2022-09-27T14:09:51;3.42;;;1.77;;
74741;SDS011;63265;48.288;16.314;2022-09-27T14:12:20;4.47;;;1.90;;
74741;SDS011;63265;48.288;16.314;2022-09-27T14:14:51;6.55;;;2.10;;
74741;SDS011;63265;48.288;16.314;2022-09-27T14:17:19;4.30;;;1.85;;
74741;SDS011;63265;48.288;16.314;2022-09-27T14:19:46;4.28;;;2.47;;
74741;SDS011;63265;48.288;16.314;2022-09-27T14:22:13;2.83;;;1.80;;
74741;SDS011;63265;48.288;16.314;2022-09-27T14:27:11;3.15;;;1.80;;
74741;SDS011;63265;48.288;16.314;2022-09-27T14:29:45;2.80;;;1.90;;
74741;SDS011;63265;48.288;16.314;2022-09-27T14:32:16;5.77;;;2.30;;
74741;SDS011;63265;48.288;16.314;2022-09-27T14:34:44;4.45;;;1.90;;
74741;SDS011;63265;48.288;16.314;2022-09-27T14:37:17;3.35;;;1.80;;
74741;SDS011;63265;48.288;16.314;2022-09-27T14:40:00;3.92;;;1.55;;
74741;SDS011;63265;48.288;16.314;2022-09-27T14:42:31;2.75;;;1.60;;
74741;SDS011;63265;48.288;16.314;2022-09-27T14:45:34;3.67;;;1.80;;
74741;SDS011;63265;48.288;16.314;2022-09-27T14:48:00;2.25;;;1.65;;
74741;SDS011;63265;48.288;16.314;2022-09-27T14:50:27;2.83;;;1.70;;
74741;SDS011;63265;48.288;16.314;2022-09-27T14:52:55;2.78;;;1.95;;
74741;SDS011;63265;48.288;16.314;2022-09-27T14:55:23;4.80;;;1.80;;
74741;SDS011;63265;48.288;16.314;2022-09-27T14:57:56;2.80;;;1.50;;
74741;SDS011;63265;48.288;16.314;2022-09-27T15:00:25;2.63;;;1.83;;
74741;SDS011;63265;48.288;16.314;2022-09-27T15:02:57;3.90;;;1.98;;
74741;SDS011;63265;48.288;16.314;2022-09-27T15:05:27;2.63;;;1.42;;
74741;SDS011;63265;48.288;16.314;2022-09-27T15:07:56;3.35;;;1.73;;
74741;SDS011;63265;48.288;16.314;2022-09-27T15:10:23;3.03;;;1.60;;
74741;SDS011;63265;48.288;16.314;2022-09-27T15:12:52;5.00;;;1.60;;
74741;SDS011;63265;48.288;16.314;2022-09-27T15:15:23;3.75;;;1.60;;
74741;SDS011;63265;48.288;16.314;2022-09-27T15:18:01;2.53;;;1.52;;
74741;SDS011;63265;48.288;16.314;2022-09-27T15:22:56;3.05;;;1.67;;
74741;SDS011;63265;48.288;16.314;2022-09-27T15:25:25;2.03;;;1.58;;
74741;SDS011;63265;48.288;16.314;2022-09-27T15:28:03;2.65;;;1.60;;
74741;SDS011;63265;48.288;16.314;2022-09-27T15:30:38;3.35;;;1.30;;
74741;SDS011;63265;48.288;16.314;2022-09-27T15:33:17;3.00;;;1.58;;
74741;SDS011;63265;48.288;16.314;2022-09-27T15:35:49;4.53;;;1.40;;
74741;SDS011;63265;48.288;16.314;2022-09-27T15:38:25;2.08;;;1.13;;
74741;SDS011;63265;48.288;16.314;2022-09-27T15:40:57;1.70;;;1.40;;
74741;SDS011;63265;48.288;16.314;2022-09-27T15:51:51;2.25;;;1.25;;
74741;SDS011;63265;48.288;16.314;2022-09-27T15:54:19;1.90;;;1.40;;
74741;SDS011;63265;48.288;16.314;2022-09-27T15:56:46;2.95;;;1.60;;
74741;SDS011;63265;48.288;16.314;2022-09-27T15:59:18;5.45;;;1.70;;
74741;SDS011;63265;48.288;16.314;2022-09-27T16:01:46;3.97;;;1.30;;
74741;SDS011;63265;48.288;16.314;2022-09-27T16:04:12;6.32;;;1.60;;
74741;SDS011;63265;48.288;16.314;2022-09-27T16:06:38;6.95;;;1.73;;
74741;SDS011;63265;48.288;16.314;2022-09-27T16:09:08;6.40;;;2.17;;
74741;SDS011;63265;48.288;16.314;2022-09-27T16:11:44;9.55;;;2.67;;
74741;SDS011;63265;48.288;16.314;2022-09-27T16:14:14;23.30;;;4.05;;
74741;SDS011;63265;48.288;16.314;2022-09-27T16:16:46;13.73;;;4.70;;
74741;SDS011;63265;48.288;16.314;2022-09-27T16:19:20;20.27;;;5.45;;
74741;SDS011;63265;48.288;16.314;2022-09-27T16:21:46;18.38;;;6.50;;
74741;SDS011;63265;48.288;16.314;2022-09-27T16:24:13;28.45;;;7.32;;
74741;SDS011;63265;48.288;16.314;2022-09-27T16:26:39;22.58;;;7.00;;
74741;SDS011;63265;48.288;16.314;2022-09-27T16:29:09;28.77;;;7.30;;
74741;SDS011;63265;48.288;16.314;2022-09-27T16:31:37;22.50;;;6.70;;
74741;SDS011;63265;48.288;16.314;2022-09-27T16:34:03;25.33;;;7.13;;
74741;SDS011;63265;48.288;16.314;2022-09-27T16:36:29;26.27;;;6.40;;
74741;SDS011;63265;48.288;16.314;2022-09-27T16:38:55;26.90;;;6.55;;
74741;SDS011;63265;48.288;16.314;2022-09-27T16:41:20;23.13;;;6.55;;
74741;SDS011;63265;48.288;16.314;2022-09-27T16:43:46;21.85;;;6.32;;
74741;SDS011;63265;48.288;16.314;2022-09-27T16:46:13;19.20;;;6.50;;
74741;SDS011;63265;48.288;16.314;2022-09-27T16:48:42;18.77;;;5.85;;
74741;SDS011;63265;48.288;16.314;2022-09-27T16:51:18;19.85;;;5.78;;
74741;SDS011;63265;48.288;16.314;2022-09-27T16:54:03;17.35;;;5.75;;
74741;SDS011;63265;48.288;16.314;2022-09-27T16:56:31;17.02;;;5.50;;
74741;SDS011;63265;48.288;16.314;2022-09-27T16:58:58;19.65;;;5.28;;
74741;SDS011;63265;48.288;16.314;2022-09-27T17:01:28;20.90;;;5.50;;
74741;SDS011;63265;48.288;16.314;2022-09-27T17:03:55;22.38;;;5.78;;
74741;SDS011;63265;48.288;16.314;2022-09-27T17:06:21;16.48;;;5.22;;
74741;SDS011;63265;48.288;16.314;2022-09-27T17:08:47;16.30;;;5.22;;
74741;SDS011;63265;48.288;16.314;2022-09-27T17:11:13;19.05;;;5.28;;
74741;SDS011;63265;48.288;16.314;2022-09-27T17:13:41;14.75;;;4.70;;
74741;SDS011;63265;48.288;16.314;2022-09-27T17:16:07;20.98;;;5.50;;
74741;SDS011;63265;48.288;16.314;2022-09-27T17:18:34;19.48;;;4.88;;
74741;SDS011;63265;48.288;16.314;2022-09-27T17:21:01;17.83;;;4.78;;
74741;SDS011;63265;48.288;16.314;2022-09-27T17:23:27;16.08;;;4.07;;
74741;SDS011;63265;48.288;16.314;2022-09-27T17:25:59;13.75;;;3.90;;
74741;SDS011;63265;48.288;16.314;2022-09-27T17:28:33;16.42;;;4.65;;
74741;SDS011;63265;48.288;16.314;2022-09-27T17:31:04;12.13;;;4.28;;
74741;SDS011;63265;48.288;16.314;2022-09-27T17:33:38;15.63;;;4.38;;
74741;SDS011;63265;48.288;16.314;2022-09-27T17:36:10;12.77;;;3.70;;
74741;SDS011;63265;48.288;16.314;2022-09-27T17:38:38;22.02;;;4.15;;
74741;SDS011;63265;48.288;16.314;2022-09-27T17:41:05;12.02;;;3.50;;
74741;SDS011;63265;48.288;16.314;2022-09-27T17:43:35;14.40;;;4.25;;
74741;SDS011;63265;48.288;16.314;2022-09-27T17:46:03;10.40;;;3.50;;
74741;SDS011;63265;48.288;16.314;2022-09-27T17:48:33;12.85;;;4.07;;
74741;SDS011;63265;48.288;16.314;2022-09-27T17:51:18;13.10;;;3.72;;
74741;SDS011;63265;48.288;16.314;2022-09-27T17:53:44;14.30;;;3.47;;
74741;SDS011;63265;48.288;16.314;2022-09-27T17:56:10;18.50;;;4.22;;
74741;SDS011;63265;48.288;16.314;2022-09-27T17:58:37;10.50;;;2.92;;
74741;SDS011;63265;48.288;16.314;2022-09-27T18:07:47;11.80;;;3.35;;